sensor_id;sensor_type;location;lat;lon;timestamp;pressure;altitude;pressure_sealevel;temperature;humidity
76819;BME280;65772;51.096;17.006;2023-09-12T00:01:09;99937.35;;;22.61;56.18
76819;BME280;65772;51.096;17.006;2023-09-12T00:03:39;99934.95;;;22.59;56.47
76819;BME280;65772;51.096;17.006;2023-09-12T00:06:10;99931.38;;;22.57;56.61
76819;BME280;65772;51.096;17.006;2023-09-12T00:08:40;99935.28;;;22.54;56.64
76819;BME280;65772;51.096;17.006;2023-09-12T00:11:12;99935.71;;;22.51;56.75
76819;BME280;65772;51.096;17.006;2023-09-12T00:13:42;99937.52;;;22.48;56.83
76819;BME280;65772;51.096;17.006;2023-09-12T00:16:13;99932.94;;;22.44;57.01
76819;BME280;65772;51.096;17.006;2023-09-12T00:18:44;99933.34;;;22.42;57.03
76819;BME280;65772;51.096;17.006;2023-09-12T00:21:15;99935.83;;;22.39;57.23
76819;BME280;65772;51.096;17.006;2023-09-12T00:23:45;99933.45;;;22.37;57.52
76819;BME280;65772;51.096;17.006;2023-09-12T00:26:16;99931.28;;;22.34;57.42
76819;BME280;65772;51.096;17.006;2023-09-12T00:28:47;99931.00;;;22.31;57.62
76819;BME280;65772;51.096;17.006;2023-09-12T00:31:17;99931.23;;;22.29;57.77
76819;BME280;65772;51.096;17.006;2023-09-12T00:33:48;99930.08;;;22.27;57.92
76819;BME280;65772;51.096;17.006;2023-09-12T00:36:19;99928.55;;;22.24;57.93
76819;BME280;65772;51.096;17.006;2023-09-12T00:38:49;99927.38;;;22.24;57.68
76819;BME280;65772;51.096;17.006;2023-09-12T00:41:20;99929.16;;;22.22;57.70
76819;BME280;65772;51.096;17.006;2023-09-12T00:43:51;99930.41;;;22.20;57.87
76819;BME280;65772;51.096;17.006;2023-09-12T00:46:23;99930.29;;;22.18;57.83
76819;BME280;65772;51.096;17.006;2023-09-12T00:48:54;99930.84;;;22.16;57.96
76819;BME280;65772;51.096;17.006;2023-09-12T00:51:27;99931.77;;;22.14;57.85
76819;BME280;65772;51.096;17.006;2023-09-12T00:53:58;99934.95;;;22.13;57.87
76819;BME280;65772;51.096;17.006;2023-09-12T00:56:28;99934.46;;;22.11;58.02
76819;BME280;65772;51.096;17.006;2023-09-12T00:59:00;99929.65;;;22.09;58.14
76819;BME280;65772;51.096;17.006;2023-09-12T01:01:32;99935.08;;;22.07;58.10
76819;BME280;65772;51.096;17.006;2023-09-12T01:04:04;99928.52;;;22.05;58.33
76819;BME280;65772;51.096;17.006;2023-09-12T01:06:46;99928.91;;;22.04;58.26
76819;BME280;65772;51.096;17.006;2023-09-12T01:09:18;99927.39;;;22.02;58.71
76819;BME280;65772;51.096;17.006;2023-09-12T01:11:49;99924.45;;;22.01;58.38
76819;BME280;65772;51.096;17.006;2023-09-12T01:14:19;99924.31;;;22.00;58.39
76819;BME280;65772;51.096;17.006;2023-09-12T01:16:50;99923.98;;;21.98;58.38
76819;BME280;65772;51.096;17.006;2023-09-12T01:19:21;99924.54;;;21.96;58.38
76819;BME280;65772;51.096;17.006;2023-09-12T01:22:10;99920.23;;;21.94;58.40
76819;BME280;65772;51.096;17.006;2023-09-12T01:25:07;99922.86;;;21.93;58.39
76819;BME280;65772;51.096;17.006;2023-09-12T01:27:40;99919.42;;;21.92;58.54
76819;BME280;65772;51.096;17.006;2023-09-12T01:30:13;99919.94;;;21.92;58.56
76819;BME280;65772;51.096;17.006;2023-09-12T01:32:46;99920.50;;;21.90;58.54
76819;BME280;65772;51.096;17.006;2023-09-12T01:35:15;99923.15;;;21.88;58.48
76819;BME280;65772;51.096;17.006;2023-09-12T01:37:46;99922.19;;;21.84;58.64
76819;BME280;65772;51.096;17.006;2023-09-12T01:40:17;99919.41;;;21.84;58.53
76819;BME280;65772;51.096;17.006;2023-09-12T01:42:48;99920.83;;;21.84;58.86
76819;BME280;65772;51.096;17.006;2023-09-12T01:45:21;99919.44;;;21.83;58.72
76819;BME280;65772;51.096;17.006;2023-09-12T01:47:53;99921.20;;;21.83;58.76
76819;BME280;65772;51.096;17.006;2023-09-12T01:50:24;99923.12;;;21.82;58.68
76819;BME280;65772;51.096;17.006;2023-09-12T01:52:56;99923.50;;;21.81;58.74
76819;BME280;65772;51.096;17.006;2023-09-12T01:55:27;99928.58;;;21.80;58.64
76819;BME280;65772;51.096;17.006;2023-09-12T01:57:58;99930.67;;;21.79;58.52
76819;BME280;65772;51.096;17.006;2023-09-12T02:00:29;99926.38;;;21.77;58.65
76819;BME280;65772;51.096;17.006;2023-09-12T02:03:01;99928.64;;;21.76;58.81
76819;BME280;65772;51.096;17.006;2023-09-12T02:05:32;99931.13;;;21.74;58.72
76819;BME280;65772;51.096;17.006;2023-09-12T02:08:03;99929.44;;;21.72;58.80
76819;BME280;65772;51.096;17.006;2023-09-12T02:10:34;99930.18;;;21.71;58.77
76819;BME280;65772;51.096;17.006;2023-09-12T02:13:04;99932.28;;;21.70;58.78
76819;BME280;65772;51.096;17.006;2023-09-12T02:15:35;99930.14;;;21.72;58.86
76819;BME280;65772;51.096;17.006;2023-09-12T02:18:06;99932.52;;;21.74;58.78
76819;BME280;65772;51.096;17.006;2023-09-12T02:20:40;99930.56;;;21.76;58.90
76819;BME280;65772;51.096;17.006;2023-09-12T02:23:11;99931.04;;;21.78;58.84
76819;BME280;65772;51.096;17.006;2023-09-12T02:25:41;99931.54;;;21.79;58.88
76819;BME280;65772;51.096;17.006;2023-09-12T02:28:12;99932.23;;;21.80;59.05
76819;BME280;65772;51.096;17.006;2023-09-12T02:30:42;99932.56;;;21.80;58.99
76819;BME280;65772;51.096;17.006;2023-09-12T02:33:13;99929.29;;;21.79;58.92
76819;BME280;65772;51.096;17.006;2023-09-12T02:35:43;99933.83;;;21.78;58.93
76819;BME280;65772;51.096;17.006;2023-09-12T02:38:14;99935.59;;;21.76;59.10
76819;BME280;65772;51.096;17.006;2023-09-12T02:40:45;99931.27;;;21.75;58.94
76819;BME280;65772;51.096;17.006;2023-09-12T02:43:15;99928.86;;;21.74;59.14
76819;BME280;65772;51.096;17.006;2023-09-12T02:45:46;99929.23;;;21.73;58.88
76819;BME280;65772;51.096;17.006;2023-09-12T02:48:17;99933.79;;;21.72;59.01
76819;BME280;65772;51.096;17.006;2023-09-12T02:50:48;99936.30;;;21.69;59.26
76819;BME280;65772;51.096;17.006;2023-09-12T02:53:18;99937.23;;;21.66;59.40
76819;BME280;65772;51.096;17.006;2023-09-12T02:55:50;99937.31;;;21.62;59.39
76819;BME280;65772;51.096;17.006;2023-09-12T02:58:21;99937.05;;;21.59;59.27
76819;BME280;65772;51.096;17.006;2023-09-12T03:00:52;99937.80;;;21.56;59.55
76819;BME280;65772;51.096;17.006;2023-09-12T03:03:24;99936.62;;;21.53;59.64
76819;BME280;65772;51.096;17.006;2023-09-12T03:06:01;99937.23;;;21.50;59.67
76819;BME280;65772;51.096;17.006;2023-09-12T03:08:33;99939.89;;;21.48;59.77
76819;BME280;65772;51.096;17.006;2023-09-12T03:11:03;99940.63;;;21.46;59.90
76819;BME280;65772;51.096;17.006;2023-09-12T03:13:34;99940.11;;;21.46;59.92
76819;BME280;65772;51.096;17.006;2023-09-12T03:16:05;99939.26;;;21.45;59.94
76819;BME280;65772;51.096;17.006;2023-09-12T03:18:35;99937.52;;;21.44;59.73
76819;BME280;65772;51.096;17.006;2023-09-12T03:21:06;99940.67;;;21.44;59.96
76819;BME280;65772;51.096;17.006;2023-09-12T03:23:36;99938.95;;;21.43;60.00
76819;BME280;65772;51.096;17.006;2023-09-12T03:26:07;99941.05;;;21.41;60.04
76819;BME280;65772;51.096;17.006;2023-09-12T03:28:38;99941.82;;;21.39;59.96
76819;BME280;65772;51.096;17.006;2023-09-12T03:31:13;99941.86;;;21.37;60.19
76819;BME280;65772;51.096;17.006;2023-09-12T03:33:44;99941.92;;;21.34;60.30
76819;BME280;65772;51.096;17.006;2023-09-12T03:36:19;99939.52;;;21.32;60.14
76819;BME280;65772;51.096;17.006;2023-09-12T03:38:50;99936.77;;;21.31;60.25
76819;BME280;65772;51.096;17.006;2023-09-12T03:41:21;99937.83;;;21.30;60.15
76819;BME280;65772;51.096;17.006;2023-09-12T03:43:55;99937.89;;;21.28;60.51
76819;BME280;65772;51.096;17.006;2023-09-12T03:46:26;99938.44;;;21.26;60.42
76819;BME280;65772;51.096;17.006;2023-09-12T03:48:56;99939.51;;;21.25;60.35
76819;BME280;65772;51.096;17.006;2023-09-12T03:51:27;99939.35;;;21.24;60.23
76819;BME280;65772;51.096;17.006;2023-09-12T03:53:59;99936.07;;;21.23;60.27
76819;BME280;65772;51.096;17.006;2023-09-12T03:56:29;99935.77;;;21.21;60.10
76819;BME280;65772;51.096;17.006;2023-09-12T03:59:00;99934.05;;;21.20;60.24
76819;BME280;65772;51.096;17.006;2023-09-12T04:01:30;99931.13;;;21.18;60.36
76819;BME280;65772;51.096;17.006;2023-09-12T04:04:01;99931.50;;;21.16;60.26
76819;BME280;65772;51.096;17.006;2023-09-12T04:06:33;99929.41;;;21.17;60.41
76819;BME280;65772;51.096;17.006;2023-09-12T04:09:03;99933.36;;;21.19;60.23
76819;BME280;65772;51.096;17.006;2023-09-12T04:11:34;99933.34;;;21.21;60.40
76819;BME280;65772;51.096;17.006;2023-09-12T04:14:16;99931.41;;;21.22;60.27
76819;BME280;65772;51.096;17.006;2023-09-12T04:16:46;99934.69;;;21.23;60.22
76819;BME280;65772;51.096;17.006;2023-09-12T04:19:17;99936.09;;;21.23;60.32
76819;BME280;65772;51.096;17.006;2023-09-12T04:21:48;99937.66;;;21.22;60.35
76819;BME280;65772;51.096;17.006;2023-09-12T04:24:18;99935.94;;;21.21;60.28
76819;BME280;65772;51.096;17.006;2023-09-12T04:26:50;99941.18;;;21.19;60.19
76819;BME280;65772;51.096;17.006;2023-09-12T04:29:20;99946.77;;;21.17;60.52
76819;BME280;65772;51.096;17.006;2023-09-12T04:31:51;99943.67;;;21.15;60.51
76819;BME280;65772;51.096;17.006;2023-09-12T04:34:29;99944.95;;;21.12;60.38
76819;BME280;65772;51.096;17.006;2023-09-12T04:37:00;99942.94;;;21.08;60.58
76819;BME280;65772;51.096;17.006;2023-09-12T04:39:32;99945.45;;;21.05;60.47
76819;BME280;65772;51.096;17.006;2023-09-12T04:42:04;99944.80;;;21.02;60.38
76819;BME280;65772;51.096;17.006;2023-09-12T04:44:38;99947.44;;;21.00;60.49
76819;BME280;65772;51.096;17.006;2023-09-12T04:47:09;99949.55;;;20.99;60.68
76819;BME280;65772;51.096;17.006;2023-09-12T04:49:40;99948.57;;;20.96;61.01
76819;BME280;65772;51.096;17.006;2023-09-12T04:52:11;99950.14;;;20.96;60.96
76819;BME280;65772;51.096;17.006;2023-09-12T04:54:42;99948.77;;;20.95;61.07
76819;BME280;65772;51.096;17.006;2023-09-12T04:57:12;99949.98;;;20.95;61.10
76819;BME280;65772;51.096;17.006;2023-09-12T04:59:43;99946.17;;;20.94;60.87
76819;BME280;65772;51.096;17.006;2023-09-12T05:02:13;99950.00;;;20.94;60.94
76819;BME280;65772;51.096;17.006;2023-09-12T05:04:44;99949.46;;;20.95;60.80
76819;BME280;65772;51.096;17.006;2023-09-12T05:07:16;99953.48;;;20.94;60.70
76819;BME280;65772;51.096;17.006;2023-09-12T05:09:47;99955.02;;;20.95;60.69
76819;BME280;65772;51.096;17.006;2023-09-12T05:12:18;99957.96;;;20.95;60.60
76819;BME280;65772;51.096;17.006;2023-09-12T05:14:48;99959.17;;;20.95;60.83
76819;BME280;65772;51.096;17.006;2023-09-12T05:17:19;99959.15;;;20.96;60.71
76819;BME280;65772;51.096;17.006;2023-09-12T05:19:50;99961.18;;;20.98;60.53
76819;BME280;65772;51.096;17.006;2023-09-12T05:22:20;99965.68;;;20.99;60.46
76819;BME280;65772;51.096;17.006;2023-09-12T05:24:51;99964.11;;;20.99;60.46
76819;BME280;65772;51.096;17.006;2023-09-12T05:27:21;99968.45;;;20.99;60.33
76819;BME280;65772;51.096;17.006;2023-09-12T05:29:52;99966.91;;;20.98;60.32
76819;BME280;65772;51.096;17.006;2023-09-12T05:32:22;99966.04;;;20.99;60.33
76819;BME280;65772;51.096;17.006;2023-09-12T05:34:53;99965.37;;;20.97;60.31
76819;BME280;65772;51.096;17.006;2023-09-12T05:37:44;99965.42;;;20.96;60.33
76819;BME280;65772;51.096;17.006;2023-09-12T05:40:15;99965.07;;;20.96;60.19
76819;BME280;65772;51.096;17.006;2023-09-12T05:42:46;99963.15;;;20.96;60.38
76819;BME280;65772;51.096;17.006;2023-09-12T05:45:16;99961.24;;;20.96;60.27
76819;BME280;65772;51.096;17.006;2023-09-12T05:47:47;99962.97;;;20.96;60.36
76819;BME280;65772;51.096;17.006;2023-09-12T05:50:18;99961.92;;;20.97;60.33
76819;BME280;65772;51.096;17.006;2023-09-12T05:52:49;99967.44;;;20.98;60.36
76819;BME280;65772;51.096;17.006;2023-09-12T05:55:20;99959.60;;;21.00;60.28
76819;BME280;65772;51.096;17.006;2023-09-12T05:57:51;99961.83;;;21.02;60.16
76819;BME280;65772;51.096;17.006;2023-09-12T06:00:23;99961.25;;;21.04;60.36
76819;BME280;65772;51.096;17.006;2023-09-12T06:02:54;99960.33;;;21.07;60.32
76819;BME280;65772;51.096;17.006;2023-09-12T06:05:25;99959.91;;;21.09;60.35
76819;BME280;65772;51.096;17.006;2023-09-12T06:07:55;99959.02;;;21.12;60.17
76819;BME280;65772;51.096;17.006;2023-09-12T06:10:26;99963.83;;;21.14;60.33
76819;BME280;65772;51.096;17.006;2023-09-12T06:12:57;99963.98;;;21.16;60.18
76819;BME280;65772;51.096;17.006;2023-09-12T06:15:27;99964.14;;;21.18;60.17
76819;BME280;65772;51.096;17.006;2023-09-12T06:17:58;99961.14;;;21.19;60.03
76819;BME280;65772;51.096;17.006;2023-09-12T06:20:28;99959.73;;;21.21;60.03
76819;BME280;65772;51.096;17.006;2023-09-12T06:22:59;99958.14;;;21.22;60.21
76819;BME280;65772;51.096;17.006;2023-09-12T06:25:29;99959.69;;;21.23;60.21
76819;BME280;65772;51.096;17.006;2023-09-12T06:28:00;99956.36;;;21.24;60.00
76819;BME280;65772;51.096;17.006;2023-09-12T06:30:30;99956.53;;;21.25;60.18
76819;BME280;65772;51.096;17.006;2023-09-12T06:33:01;99952.69;;;21.27;60.23
76819;BME280;65772;51.096;17.006;2023-09-12T06:35:33;99954.39;;;21.28;60.17
76819;BME280;65772;51.096;17.006;2023-09-12T06:38:03;99951.42;;;21.29;60.25
76819;BME280;65772;51.096;17.006;2023-09-12T06:40:34;99955.00;;;21.30;60.16
76819;BME280;65772;51.096;17.006;2023-09-12T06:43:05;99955.31;;;21.33;60.28
76819;BME280;65772;51.096;17.006;2023-09-12T06:45:35;99955.80;;;21.35;60.37
76819;BME280;65772;51.096;17.006;2023-09-12T06:48:07;99953.52;;;21.36;60.36
76819;BME280;65772;51.096;17.006;2023-09-12T06:50:38;99957.98;;;21.39;60.39
76819;BME280;65772;51.096;17.006;2023-09-12T06:53:08;99961.88;;;21.42;60.14
76819;BME280;65772;51.096;17.006;2023-09-12T06:55:39;99961.30;;;21.46;60.40
76819;BME280;65772;51.096;17.006;2023-09-12T06:58:09;99959.31;;;21.50;60.05
76819;BME280;65772;51.096;17.006;2023-09-12T07:00:40;99960.44;;;21.53;60.06
76819;BME280;65772;51.096;17.006;2023-09-12T07:03:11;99956.20;;;21.57;59.86
76819;BME280;65772;51.096;17.006;2023-09-12T07:05:45;99960.65;;;21.60;60.03
76819;BME280;65772;51.096;17.006;2023-09-12T07:08:15;99963.00;;;21.63;59.87
76819;BME280;65772;51.096;17.006;2023-09-12T07:10:46;99968.66;;;21.66;59.94
76819;BME280;65772;51.096;17.006;2023-09-12T07:13:17;99969.30;;;21.70;59.84
76819;BME280;65772;51.096;17.006;2023-09-12T07:15:47;99968.88;;;21.72;59.91
76819;BME280;65772;51.096;17.006;2023-09-12T07:18:18;99967.61;;;21.74;60.13
76819;BME280;65772;51.096;17.006;2023-09-12T07:20:58;99960.98;;;21.76;60.11
76819;BME280;65772;51.096;17.006;2023-09-12T07:23:29;99965.80;;;21.78;59.91
76819;BME280;65772;51.096;17.006;2023-09-12T07:26:00;99967.15;;;21.80;60.14
76819;BME280;65772;51.096;17.006;2023-09-12T07:28:30;99967.13;;;21.81;59.85
76819;BME280;65772;51.096;17.006;2023-09-12T07:31:01;99967.44;;;21.82;59.93
76819;BME280;65772;51.096;17.006;2023-09-12T07:33:31;99969.63;;;21.85;59.76
76819;BME280;65772;51.096;17.006;2023-09-12T07:36:02;99967.34;;;21.86;59.85
76819;BME280;65772;51.096;17.006;2023-09-12T07:38:33;99969.90;;;21.88;59.85
76819;BME280;65772;51.096;17.006;2023-09-12T07:41:03;99966.05;;;21.90;59.73
76819;BME280;65772;51.096;17.006;2023-09-12T07:43:33;99964.29;;;21.91;59.98
76819;BME280;65772;51.096;17.006;2023-09-12T07:46:04;99965.09;;;21.93;59.83
76819;BME280;65772;51.096;17.006;2023-09-12T07:48:35;99964.35;;;21.95;59.85
76819;BME280;65772;51.096;17.006;2023-09-12T07:51:14;99963.62;;;21.97;59.90
76819;BME280;65772;51.096;17.006;2023-09-12T07:53:47;99958.17;;;22.02;60.04
76819;BME280;65772;51.096;17.006;2023-09-12T07:56:17;99957.88;;;22.06;60.10
76819;BME280;65772;51.096;17.006;2023-09-12T07:58:49;99956.20;;;22.11;59.96
76819;BME280;65772;51.096;17.006;2023-09-12T08:01:20;99954.01;;;22.15;60.05
76819;BME280;65772;51.096;17.006;2023-09-12T08:03:50;99952.33;;;22.19;60.22
76819;BME280;65772;51.096;17.006;2023-09-12T08:06:21;99956.73;;;22.24;60.11
76819;BME280;65772;51.096;17.006;2023-09-12T08:08:53;99957.48;;;22.29;60.17
76819;BME280;65772;51.096;17.006;2023-09-12T08:11:24;99956.34;;;22.34;59.90
76819;BME280;65772;51.096;17.006;2023-09-12T08:13:55;99959.70;;;22.38;59.78
76819;BME280;65772;51.096;17.006;2023-09-12T08:16:26;99960.85;;;22.40;59.77
76819;BME280;65772;51.096;17.006;2023-09-12T08:18:57;99963.39;;;22.43;59.82
76819;BME280;65772;51.096;17.006;2023-09-12T08:21:28;99959.84;;;22.46;59.77
76819;BME280;65772;51.096;17.006;2023-09-12T08:23:59;99959.26;;;22.48;59.59
76819;BME280;65772;51.096;17.006;2023-09-12T08:26:29;99960.95;;;22.50;59.72
76819;BME280;65772;51.096;17.006;2023-09-12T08:28:59;99962.48;;;22.51;59.69
76819;BME280;65772;51.096;17.006;2023-09-12T08:31:30;99966.64;;;22.53;59.80
76819;BME280;65772;51.096;17.006;2023-09-12T08:34:01;99964.15;;;22.54;59.83
76819;BME280;65772;51.096;17.006;2023-09-12T08:36:31;99963.77;;;22.56;59.89
76819;BME280;65772;51.096;17.006;2023-09-12T08:39:02;99964.23;;;22.57;59.77
76819;BME280;65772;51.096;17.006;2023-09-12T08:41:32;99963.30;;;22.59;59.83
76819;BME280;65772;51.096;17.006;2023-09-12T08:44:03;99960.16;;;22.60;59.59
76819;BME280;65772;51.096;17.006;2023-09-12T08:46:35;99961.69;;;22.62;59.41
76819;BME280;65772;51.096;17.006;2023-09-12T08:49:07;99964.56;;;22.66;59.50
76819;BME280;65772;51.096;17.006;2023-09-12T08:51:39;99966.39;;;22.69;59.79
76819;BME280;65772;51.096;17.006;2023-09-12T08:54:10;99968.92;;;22.72;59.43
76819;BME280;65772;51.096;17.006;2023-09-12T08:56:44;99971.30;;;22.74;59.60
76819;BME280;65772;51.096;17.006;2023-09-12T08:59:16;99969.35;;;22.77;59.53
76819;BME280;65772;51.096;17.006;2023-09-12T09:01:47;99969.25;;;22.80;59.65
76819;BME280;65772;51.096;17.006;2023-09-12T09:04:21;99971.56;;;22.85;59.19
76819;BME280;65772;51.096;17.006;2023-09-12T09:06:52;99974.00;;;22.91;58.93
76819;BME280;65772;51.096;17.006;2023-09-12T09:09:24;99972.66;;;22.96;59.12
76819;BME280;65772;51.096;17.006;2023-09-12T09:11:56;99974.94;;;23.01;59.25
76819;BME280;65772;51.096;17.006;2023-09-12T09:14:26;99976.20;;;23.06;59.13
76819;BME280;65772;51.096;17.006;2023-09-12T09:16:57;99976.05;;;23.11;58.86
76819;BME280;65772;51.096;17.006;2023-09-12T09:19:41;99973.52;;;23.15;58.85
76819;BME280;65772;51.096;17.006;2023-09-12T09:22:12;99975.45;;;23.20;59.12
76819;BME280;65772;51.096;17.006;2023-09-12T09:24:42;99975.69;;;23.24;59.23
76819;BME280;65772;51.096;17.006;2023-09-12T09:27:33;99974.38;;;23.27;59.17
76819;BME280;65772;51.096;17.006;2023-09-12T09:30:06;99969.70;;;23.32;58.99
76819;BME280;65772;51.096;17.006;2023-09-12T09:32:37;99968.21;;;23.35;59.30
76819;BME280;65772;51.096;17.006;2023-09-12T09:35:08;99965.69;;;23.39;59.50
76819;BME280;65772;51.096;17.006;2023-09-12T09:37:41;99963.50;;;23.42;59.49
76819;BME280;65772;51.096;17.006;2023-09-12T09:40:12;99962.02;;;23.45;59.59
76819;BME280;65772;51.096;17.006;2023-09-12T09:42:42;99958.61;;;23.49;59.52
76819;BME280;65772;51.096;17.006;2023-09-12T09:45:13;99956.22;;;23.53;59.53
76819;BME280;65772;51.096;17.006;2023-09-12T09:47:45;99958.91;;;23.57;59.30
76819;BME280;65772;51.096;17.006;2023-09-12T09:50:17;99957.91;;;23.61;59.17
76819;BME280;65772;51.096;17.006;2023-09-12T09:52:50;99958.65;;;23.65;59.29
76819;BME280;65772;51.096;17.006;2023-09-12T09:55:23;99952.98;;;23.68;59.37
76819;BME280;65772;51.096;17.006;2023-09-12T09:57:53;99956.56;;;23.71;59.13
76819;BME280;65772;51.096;17.006;2023-09-12T10:00:25;99958.52;;;23.75;59.01
76819;BME280;65772;51.096;17.006;2023-09-12T10:02:56;99955.31;;;23.77;58.46
76819;BME280;65772;51.096;17.006;2023-09-12T10:05:30;99955.03;;;23.82;58.36
76819;BME280;65772;51.096;17.006;2023-09-12T10:08:03;99955.06;;;23.85;57.96
76819;BME280;65772;51.096;17.006;2023-09-12T10:10:39;99949.91;;;23.88;57.80
76819;BME280;65772;51.096;17.006;2023-09-12T10:13:11;99950.87;;;23.91;57.65
76819;BME280;65772;51.096;17.006;2023-09-12T10:15:43;99953.17;;;23.95;57.48
76819;BME280;65772;51.096;17.006;2023-09-12T10:18:18;99951.29;;;24.00;57.32
76819;BME280;65772;51.096;17.006;2023-09-12T10:21:06;99947.14;;;24.04;56.96
76819;BME280;65772;51.096;17.006;2023-09-12T10:23:41;99945.93;;;24.09;56.97
76819;BME280;65772;51.096;17.006;2023-09-12T10:26:15;99948.05;;;24.14;57.11
76819;BME280;65772;51.096;17.006;2023-09-12T10:28:48;99946.67;;;24.18;56.48
76819;BME280;65772;51.096;17.006;2023-09-12T10:31:20;99940.30;;;24.22;55.39
76819;BME280;65772;51.096;17.006;2023-09-12T10:33:53;99940.09;;;24.28;54.30
76819;BME280;65772;51.096;17.006;2023-09-12T10:36:26;99941.69;;;24.33;54.11
76819;BME280;65772;51.096;17.006;2023-09-12T10:38:58;99942.58;;;24.37;53.20
76819;BME280;65772;51.096;17.006;2023-09-12T10:41:30;99938.77;;;24.41;53.25
76819;BME280;65772;51.096;17.006;2023-09-12T10:44:04;99939.70;;;24.45;53.41
76819;BME280;65772;51.096;17.006;2023-09-12T10:46:39;99936.94;;;24.49;53.65
76819;BME280;65772;51.096;17.006;2023-09-12T10:49:12;99935.95;;;24.53;53.28
76819;BME280;65772;51.096;17.006;2023-09-12T10:51:45;99934.45;;;24.56;52.26
76819;BME280;65772;51.096;17.006;2023-09-12T10:54:25;99936.59;;;24.59;51.67
76819;BME280;65772;51.096;17.006;2023-09-12T10:57:06;99932.45;;;24.63;51.52
76819;BME280;65772;51.096;17.006;2023-09-12T10:59:38;99930.20;;;24.67;51.57
76819;BME280;65772;51.096;17.006;2023-09-12T11:02:32;99928.27;;;24.72;51.78
76819;BME280;65772;51.096;17.006;2023-09-12T11:05:05;99926.52;;;24.77;51.03
76819;BME280;65772;51.096;17.006;2023-09-12T11:07:45;99925.31;;;24.82;51.51
76819;BME280;65772;51.096;17.006;2023-09-12T11:10:23;99923.75;;;24.87;51.28
76819;BME280;65772;51.096;17.006;2023-09-12T11:12:55;99922.77;;;24.90;50.60
76819;BME280;65772;51.096;17.006;2023-09-12T11:15:27;99918.96;;;24.94;50.30
76819;BME280;65772;51.096;17.006;2023-09-12T11:18:05;99917.77;;;24.99;50.39
76819;BME280;65772;51.096;17.006;2023-09-12T11:21:00;99916.38;;;25.03;50.27
76819;BME280;65772;51.096;17.006;2023-09-12T11:23:33;99915.52;;;25.07;50.92
76819;BME280;65772;51.096;17.006;2023-09-12T11:26:06;99916.46;;;25.10;51.24
76819;BME280;65772;51.096;17.006;2023-09-12T11:28:36;99918.42;;;25.13;50.76
76819;BME280;65772;51.096;17.006;2023-09-12T11:31:08;99915.17;;;25.16;50.97
76819;BME280;65772;51.096;17.006;2023-09-12T11:33:41;99914.00;;;25.20;50.98
76819;BME280;65772;51.096;17.006;2023-09-12T11:36:15;99919.58;;;25.24;50.58
76819;BME280;65772;51.096;17.006;2023-09-12T11:38:51;99920.79;;;25.30;50.61
76819;BME280;65772;51.096;17.006;2023-09-12T11:41:41;99918.66;;;25.35;50.59
76819;BME280;65772;51.096;17.006;2023-09-12T11:44:12;99919.13;;;25.41;50.39
76819;BME280;65772;51.096;17.006;2023-09-12T11:46:43;99922.08;;;25.46;49.94
76819;BME280;65772;51.096;17.006;2023-09-12T11:49:19;99920.95;;;25.52;49.63
76819;BME280;65772;51.096;17.006;2023-09-12T11:51:51;99918.09;;;25.59;49.15
76819;BME280;65772;51.096;17.006;2023-09-12T11:54:27;99918.04;;;25.65;48.85
76819;BME280;65772;51.096;17.006;2023-09-12T11:57:02;99915.20;;;25.70;48.62
76819;BME280;65772;51.096;17.006;2023-09-12T11:59:36;99908.15;;;25.76;48.89
76819;BME280;65772;51.096;17.006;2023-09-12T12:02:09;99903.09;;;25.80;48.63
76819;BME280;65772;51.096;17.006;2023-09-12T12:04:40;99901.98;;;25.86;48.47
76819;BME280;65772;51.096;17.006;2023-09-12T12:07:12;99905.26;;;25.92;48.53
76819;BME280;65772;51.096;17.006;2023-09-12T12:09:43;99900.33;;;25.96;49.02
76819;BME280;65772;51.096;17.006;2023-09-12T12:12:14;99898.92;;;26.01;48.66
76819;BME280;65772;51.096;17.006;2023-09-12T12:14:45;99900.02;;;26.05;49.01
76819;BME280;65772;51.096;17.006;2023-09-12T12:17:16;99903.70;;;26.08;48.89
76819;BME280;65772;51.096;17.006;2023-09-12T12:19:47;99905.60;;;26.13;48.69
76819;BME280;65772;51.096;17.006;2023-09-12T12:22:19;99906.48;;;26.17;48.58
76819;BME280;65772;51.096;17.006;2023-09-12T12:24:50;99911.41;;;26.20;48.36
76819;BME280;65772;51.096;17.006;2023-09-12T12:27:21;99907.61;;;26.23;47.98
76819;BME280;65772;51.096;17.006;2023-09-12T12:29:52;99902.59;;;26.27;48.65
76819;BME280;65772;51.096;17.006;2023-09-12T12:32:22;99903.98;;;26.27;48.45
76819;BME280;65772;51.096;17.006;2023-09-12T12:34:53;99906.72;;;26.29;48.58
76819;BME280;65772;51.096;17.006;2023-09-12T12:37:44;99905.90;;;26.31;47.97
76819;BME280;65772;51.096;17.006;2023-09-12T12:40:20;99909.13;;;26.34;47.73
76819;BME280;65772;51.096;17.006;2023-09-12T12:42:50;99909.73;;;26.36;46.68
76819;BME280;65772;51.096;17.006;2023-09-12T12:45:24;99903.40;;;26.41;47.23
76819;BME280;65772;51.096;17.006;2023-09-12T12:47:59;99903.06;;;26.45;47.38
76819;BME280;65772;51.096;17.006;2023-09-12T12:50:34;99899.15;;;26.50;47.15
76819;BME280;65772;51.096;17.006;2023-09-12T12:53:05;99890.23;;;26.53;47.50
76819;BME280;65772;51.096;17.006;2023-09-12T12:55:38;99892.37;;;26.57;47.25
76819;BME280;65772;51.096;17.006;2023-09-12T12:58:08;99889.54;;;26.61;47.24
76819;BME280;65772;51.096;17.006;2023-09-12T13:00:40;99888.31;;;26.66;46.46
76819;BME280;65772;51.096;17.006;2023-09-12T13:03:11;99889.16;;;26.70;46.99
76819;BME280;65772;51.096;17.006;2023-09-12T13:05:41;99884.39;;;26.75;46.61
76819;BME280;65772;51.096;17.006;2023-09-12T13:08:12;99883.21;;;26.78;46.31
76819;BME280;65772;51.096;17.006;2023-09-12T13:10:42;99878.98;;;26.82;46.11
76819;BME280;65772;51.096;17.006;2023-09-12T13:13:13;99877.28;;;26.85;45.72
76819;BME280;65772;51.096;17.006;2023-09-12T13:15:44;99876.41;;;26.89;45.23